WMT409 EBCI-EDDM
Flight info
| Callsign | WMT409 |
|---|---|
| Flight time | 0h 59m |
| Altitude | 33000 |
| Route | RITAX M624 DIK M150 KRH Z729 LBU L173 RIXED Y161 RIDAR Z98 WLD T104 ROKIL ROKIL1B |
| Aircraft | A20N/M-SDE2E3FGHIRWXY/LB1 |
Departure
| Time | 2026-05-06 17:02 |
|---|---|
| Airport | Brussels South Charleroi Airport (EBCI) |
Arrival
| Time | 2026-05-06 18:01 |
|---|---|
| Airport | Munich Airport (EDDM) |
| Time | Latitude | Longitude | Altitude | Speed | Heading |
|---|---|---|---|---|---|
| 2026-05-06 16:43 | 50.46721 | 4.46581 | 577 ft | 0 kts | 337° |
| 2026-05-06 16:51 | 50.46720 | 4.46581 | 576 ft | 1 kts | 337° |
| 2026-05-06 16:52 | 50.46713 | 4.46586 | 576 ft | 1 kts | 337° |
| 2026-05-06 16:52 | 50.46706 | 4.46591 | 579 ft | 1 kts | 337° |
| 2026-05-06 16:52 | 50.46699 | 4.46596 | 578 ft | 1 kts | 337° |
| 2026-05-06 16:52 | 50.46692 | 4.46600 | 580 ft | 1 kts | 337° |
| 2026-05-06 16:53 | 50.46685 | 4.46605 | 576 ft | 1 kts | 337° |
| 2026-05-06 16:53 | 50.46678 | 4.46610 | 579 ft | 1 kts | 347° |
| 2026-05-06 16:53 | 50.46670 | 4.46611 | 578 ft | 1 kts | 27° |
| 2026-05-06 16:53 | 50.46664 | 4.46605 | 576 ft | 0 kts | 64° |
| 2026-05-06 16:56 | 50.46669 | 4.46622 | 579 ft | 7 kts | 64° |
| 2026-05-06 16:56 | 50.46698 | 4.46718 | 579 ft | 12 kts | 65° |
| 2026-05-06 16:56 | 50.46737 | 4.46854 | 576 ft | 15 kts | 65° |
| 2026-05-06 16:57 | 50.46785 | 4.47017 | 580 ft | 18 kts | 65° |
| 2026-05-06 16:57 | 50.46832 | 4.47177 | 581 ft | 16 kts | 65° |
| 2026-05-06 16:57 | 50.46880 | 4.47343 | 578 ft | 18 kts | 65° |
| 2026-05-06 16:57 | 50.46919 | 4.47471 | 579 ft | 0 kts | 65° |
| 2026-05-06 16:58 | 50.46922 | 4.47484 | 578 ft | 5 kts | 66° |
| 2026-05-06 16:58 | 50.46926 | 4.47562 | 579 ft | 8 kts | 120° |
| 2026-05-06 16:58 | 50.46898 | 4.47593 | 579 ft | 6 kts | 147° |
| 2026-05-06 16:58 | 50.46852 | 4.47626 | 578 ft | 9 kts | 156° |
| 2026-05-06 16:59 | 50.46836 | 4.47637 | 575 ft | 3 kts | 156° |
| 2026-05-06 16:59 | 50.46802 | 4.47661 | 574 ft | 8 kts | 156° |
| 2026-05-06 16:59 | 50.46733 | 4.47708 | 575 ft | 14 kts | 156° |
| 2026-05-06 16:59 | 50.46654 | 4.47762 | 572 ft | 0 kts | 156° |
| 2026-05-06 17:00 | 50.46652 | 4.47761 | 572 ft | 1 kts | 174° |
| 2026-05-06 17:00 | 50.46650 | 4.47754 | 571 ft | 1 kts | 225° |
| 2026-05-06 17:00 | 50.46651 | 4.47714 | 570 ft | 4 kts | 285° |
| 2026-05-06 17:01 | 50.46655 | 4.47686 | 569 ft | 1 kts | 281° |
| 2026-05-06 17:01 | 50.46618 | 4.47402 | 579 ft | 59 kts | 238° |
| 2026-05-06 17:01 | 50.46344 | 4.46510 | 591 ft | 120 kts | 244° |
| 2026-05-06 17:01 | 50.45950 | 4.45133 | 820 ft | 145 kts | 248° |
| 2026-05-06 17:02 | 50.45514 | 4.43609 | 1193 ft | 162 kts | 248° |
| 2026-05-06 17:02 | 50.45018 | 4.41960 | 1660 ft | 170 kts | 246° |
| 2026-05-06 17:02 | 50.44481 | 4.40268 | 2136 ft | 174 kts | 246° |
| 2026-05-06 17:02 | 50.43944 | 4.38526 | 2586 ft | 185 kts | 247° |
| 2026-05-06 17:03 | 50.43385 | 4.36608 | 2973 ft | 205 kts | 248° |
| 2026-05-06 17:03 | 50.42770 | 4.34426 | 3433 ft | 228 kts | 248° |
| 2026-05-06 17:03 | 50.42108 | 4.32053 | 3874 ft | 244 kts | 248° |
| 2026-05-06 17:03 | 50.41426 | 4.29607 | 4002 ft | 245 kts | 248° |
| 2026-05-06 17:04 | 50.40560 | 4.27320 | 4007 ft | 246 kts | 225° |
| 2026-05-06 17:04 | 50.39113 | 4.25948 | 4003 ft | 245 kts | 193° |
| 2026-05-06 17:04 | 50.37441 | 4.25907 | 4006 ft | 241 kts | 161° |
| 2026-05-06 17:04 | 50.36008 | 4.27166 | 4021 ft | 238 kts | 136° |
| 2026-05-06 17:05 | 50.34774 | 4.28917 | 4318 ft | 240 kts | 133° |
| 2026-05-06 17:05 | 50.33572 | 4.30729 | 5174 ft | 237 kts | 128° |
| 2026-05-06 17:05 | 50.32988 | 4.32138 | 5902 ft | 232 kts | 111° |
| 2026-05-06 17:05 | 50.32783 | 4.35459 | 7074 ft | 236 kts | 76° |
| 2026-05-06 17:06 | 50.33049 | 4.37140 | 7534 ft | 246 kts | 75° |
| 2026-05-06 17:06 | 50.33488 | 4.39853 | 8011 ft | 268 kts | 76° |
| 2026-05-06 17:06 | 50.33947 | 4.42748 | 8744 ft | 278 kts | 77° |
| 2026-05-06 17:06 | 50.33886 | 4.46725 | 9959 ft | 282 kts | 107° |
| 2026-05-06 17:07 | 50.33192 | 4.49687 | 10485 ft | 300 kts | 112° |
| 2026-05-06 17:07 | 50.32620 | 4.51763 | 10716 ft | 315 kts | 114° |
| 2026-05-06 17:07 | 50.31678 | 4.54991 | 11121 ft | 332 kts | 115° |
| 2026-05-06 17:07 | 50.30704 | 4.58291 | 11968 ft | 336 kts | 115° |
| 2026-05-06 17:08 | 50.29726 | 4.61634 | 12785 ft | 340 kts | 115° |
| 2026-05-06 17:08 | 50.28743 | 4.65024 | 13589 ft | 345 kts | 115° |
| 2026-05-06 17:08 | 50.27749 | 4.68463 | 14297 ft | 349 kts | 115° |
| 2026-05-06 17:08 | 50.26757 | 4.71903 | 14995 ft | 354 kts | 115° |
| 2026-05-06 17:09 | 50.25739 | 4.75429 | 15686 ft | 358 kts | 116° |
| 2026-05-06 17:09 | 50.24705 | 4.79001 | 16382 ft | 363 kts | 116° |
| 2026-05-06 17:09 | 50.23658 | 4.82617 | 17063 ft | 367 kts | 116° |
| 2026-05-06 17:09 | 50.22598 | 4.86270 | 17769 ft | 372 kts | 116° |
| 2026-05-06 17:10 | 50.21523 | 4.89967 | 18428 ft | 377 kts | 116° |
| 2026-05-06 17:10 | 50.20434 | 4.93710 | 19077 ft | 379 kts | 116° |
| 2026-05-06 17:10 | 50.19340 | 4.97465 | 19706 ft | 382 kts | 116° |
| 2026-05-06 17:10 | 50.18234 | 5.01255 | 20324 ft | 385 kts | 116° |
| 2026-05-06 17:11 | 50.17118 | 5.05072 | 20925 ft | 389 kts | 116° |
| 2026-05-06 17:11 | 50.15992 | 5.08921 | 21521 ft | 392 kts | 116° |
| 2026-05-06 17:11 | 50.14854 | 5.12800 | 22120 ft | 395 kts | 116° |
| 2026-05-06 17:11 | 50.13708 | 5.16705 | 22716 ft | 398 kts | 116° |
| 2026-05-06 17:12 | 50.12551 | 5.20636 | 23289 ft | 401 kts | 116° |
| 2026-05-06 17:12 | 50.11381 | 5.24609 | 23803 ft | 404 kts | 116° |
| 2026-05-06 17:12 | 50.10207 | 5.28586 | 24341 ft | 405 kts | 116° |
| 2026-05-06 17:12 | 50.09028 | 5.32578 | 24871 ft | 407 kts | 116° |
| 2026-05-06 17:13 | 50.07837 | 5.36600 | 25364 ft | 410 kts | 116° |
| 2026-05-06 17:13 | 50.06641 | 5.40633 | 25866 ft | 411 kts | 116° |
| 2026-05-06 17:13 | 50.05438 | 5.44682 | 26342 ft | 413 kts | 116° |
| 2026-05-06 17:13 | 50.04232 | 5.48734 | 26795 ft | 415 kts | 116° |
| 2026-05-06 17:14 | 50.03017 | 5.52811 | 27254 ft | 417 kts | 116° |
| 2026-05-06 17:14 | 50.01799 | 5.56892 | 27694 ft | 419 kts | 116° |
| 2026-05-06 17:14 | 50.00564 | 5.61022 | 28113 ft | 420 kts | 116° |
| 2026-05-06 17:14 | 49.99323 | 5.65157 | 28515 ft | 422 kts | 116° |
| 2026-05-06 17:15 | 49.98079 | 5.69300 | 28902 ft | 425 kts | 116° |
| 2026-05-06 17:15 | 49.96826 | 5.73468 | 29284 ft | 426 kts | 116° |
| 2026-05-06 17:15 | 49.95566 | 5.77652 | 29653 ft | 429 kts | 116° |
| 2026-05-06 17:15 | 49.94301 | 5.81851 | 30016 ft | 431 kts | 116° |
| 2026-05-06 17:16 | 49.93027 | 5.86070 | 30337 ft | 433 kts | 116° |
| 2026-05-06 17:16 | 49.91747 | 5.90306 | 30637 ft | 435 kts | 116° |
| 2026-05-06 17:16 | 49.90458 | 5.94561 | 30978 ft | 436 kts | 116° |
| 2026-05-06 17:16 | 49.89167 | 5.98817 | 31364 ft | 436 kts | 116° |
| 2026-05-06 17:17 | 49.87875 | 6.03069 | 31783 ft | 435 kts | 116° |
| 2026-05-06 17:17 | 49.86590 | 6.07293 | 32217 ft | 434 kts | 117° |
| 2026-05-06 17:17 | 49.85302 | 6.11516 | 32625 ft | 432 kts | 117° |
| 2026-05-06 17:17 | 49.84019 | 6.15718 | 32821 ft | 431 kts | 117° |
| 2026-05-06 17:18 | 49.82737 | 6.19905 | 32848 ft | 430 kts | 117° |
| 2026-05-06 17:18 | 49.80173 | 6.28257 | 32851 ft | 430 kts | 117° |
| 2026-05-06 17:19 | 49.77602 | 6.36604 | 32843 ft | 430 kts | 117° |
| 2026-05-06 17:19 | 49.75041 | 6.44892 | 32841 ft | 430 kts | 117° |
| 2026-05-06 17:20 | 49.72422 | 6.53203 | 32836 ft | 430 kts | 120° |
| 2026-05-06 17:20 | 49.69611 | 6.61341 | 32823 ft | 430 kts | 119° |
| 2026-05-06 17:21 | 49.66817 | 6.69517 | 32816 ft | 430 kts | 120° |
| 2026-05-06 17:21 | 49.64008 | 6.77677 | 32816 ft | 432 kts | 120° |
| 2026-05-06 17:22 | 49.61128 | 6.86004 | 32814 ft | 447 kts | 119° |
| 2026-05-06 17:22 | 49.59022 | 6.95102 | 32816 ft | 452 kts | 108° |
| 2026-05-06 17:23 | 49.57276 | 7.04400 | 32814 ft | 452 kts | 109° |
| 2026-05-06 17:23 | 49.55478 | 7.13515 | 32811 ft | 452 kts | 109° |
| 2026-05-06 17:24 | 49.53589 | 7.22805 | 32806 ft | 452 kts | 109° |
| 2026-05-06 17:24 | 49.51693 | 7.32043 | 32799 ft | 452 kts | 110° |
| 2026-05-06 17:25 | 49.49795 | 7.41252 | 32797 ft | 452 kts | 110° |
| 2026-05-06 17:25 | 49.47888 | 7.50462 | 32791 ft | 452 kts | 110° |
| 2026-05-06 17:26 | 49.45973 | 7.59671 | 32795 ft | 452 kts | 110° |
| 2026-05-06 17:26 | 49.44049 | 7.68878 | 32798 ft | 452 kts | 110° |
| 2026-05-06 17:27 | 49.42120 | 7.78071 | 32794 ft | 453 kts | 110° |
| 2026-05-06 17:27 | 49.40180 | 7.87272 | 32795 ft | 453 kts | 110° |
| 2026-05-06 17:28 | 49.38246 | 7.96400 | 32805 ft | 453 kts | 110° |
| 2026-05-06 17:28 | 49.36292 | 8.05590 | 32806 ft | 453 kts | 110° |
| 2026-05-06 17:29 | 49.34329 | 8.14775 | 32805 ft | 453 kts | 110° |
| 2026-05-06 17:29 | 49.32357 | 8.23959 | 32803 ft | 454 kts | 111° |
| 2026-05-06 17:30 | 49.30379 | 8.33130 | 32800 ft | 454 kts | 111° |
| 2026-05-06 17:30 | 49.28388 | 8.42321 | 32809 ft | 454 kts | 111° |
| 2026-05-06 17:31 | 49.26390 | 8.51503 | 32815 ft | 455 kts | 111° |
| 2026-05-06 17:31 | 49.24387 | 8.60669 | 32810 ft | 455 kts | 111° |
| 2026-05-06 17:32 | 49.22370 | 8.69859 | 32808 ft | 456 kts | 111° |
| 2026-05-06 17:32 | 49.20346 | 8.79039 | 32814 ft | 456 kts | 111° |
| 2026-05-06 17:33 | 49.18312 | 8.88223 | 32961 ft | 456 kts | 112° |
| 2026-05-06 17:33 | 49.17286 | 8.92848 | 32817 ft | 463 kts | 112° |
| 2026-05-06 17:33 | 49.16248 | 8.97513 | 32816 ft | 464 kts | 112° |
| 2026-05-06 17:34 | 49.14168 | 9.06830 | 32818 ft | 464 kts | 113° |
| 2026-05-06 17:34 | 49.12072 | 9.16169 | 32831 ft | 465 kts | 113° |
| 2026-05-06 17:35 | 49.09964 | 9.25519 | 32828 ft | 466 kts | 113° |
| 2026-05-06 17:35 | 49.07860 | 9.34810 | 32823 ft | 467 kts | 114° |
| 2026-05-06 17:36 | 49.04661 | 9.48865 | 32822 ft | 468 kts | 114° |
| 2026-05-06 17:36 | 49.02516 | 9.58232 | 32823 ft | 468 kts | 114° |
| 2026-05-06 17:37 | 49.00362 | 9.67601 | 32831 ft | 469 kts | 114° |
| 2026-05-06 17:37 | 48.98195 | 9.76985 | 32823 ft | 470 kts | 114° |
| 2026-05-06 17:38 | 48.96019 | 9.86363 | 32825 ft | 470 kts | 114° |
| 2026-05-06 17:38 | 48.93834 | 9.95746 | 32827 ft | 470 kts | 114° |
| 2026-05-06 17:39 | 48.91639 | 10.05126 | 32828 ft | 470 kts | 114° |
| 2026-05-06 17:39 | 48.89440 | 10.14485 | 32629 ft | 468 kts | 115° |
| 2026-05-06 17:40 | 48.88361 | 10.19075 | 32365 ft | 456 kts | 115° |
| 2026-05-06 17:40 | 48.87303 | 10.23566 | 32101 ft | 446 kts | 115° |
| 2026-05-06 17:40 | 48.86254 | 10.27998 | 31774 ft | 447 kts | 115° |
| 2026-05-06 17:40 | 48.85192 | 10.32458 | 31126 ft | 450 kts | 115° |
| 2026-05-06 17:41 | 48.84095 | 10.36911 | 30313 ft | 451 kts | 118° |
| 2026-05-06 17:41 | 48.82683 | 10.41150 | 29223 ft | 450 kts | 126° |
| 2026-05-06 17:41 | 48.80912 | 10.45060 | 28249 ft | 448 kts | 130° |
| 2026-05-06 17:41 | 48.79158 | 10.48921 | 27630 ft | 442 kts | 128° |
| 2026-05-06 17:42 | 48.77490 | 10.52762 | 27328 ft | 429 kts | 127° |
| 2026-05-06 17:42 | 48.75877 | 10.56490 | 26970 ft | 418 kts | 128° |
| 2026-05-06 17:42 | 48.74277 | 10.60145 | 26374 ft | 414 kts | 128° |
| 2026-05-06 17:42 | 48.72679 | 10.63755 | 25771 ft | 411 kts | 128° |
| 2026-05-06 17:43 | 48.71090 | 10.67324 | 25175 ft | 407 kts | 128° |
| 2026-05-06 17:43 | 48.69509 | 10.70862 | 24595 ft | 404 kts | 128° |
| 2026-05-06 17:43 | 48.67942 | 10.74363 | 24059 ft | 400 kts | 128° |
| 2026-05-06 17:43 | 48.66383 | 10.77839 | 23505 ft | 397 kts | 128° |
| 2026-05-06 17:44 | 48.64839 | 10.81280 | 22879 ft | 394 kts | 128° |
| 2026-05-06 17:44 | 48.63307 | 10.84690 | 22250 ft | 391 kts | 128° |
| 2026-05-06 17:44 | 48.61779 | 10.88089 | 21607 ft | 389 kts | 127° |
| 2026-05-06 17:44 | 48.60266 | 10.91449 | 20994 ft | 386 kts | 127° |
| 2026-05-06 17:45 | 48.58762 | 10.94785 | 20405 ft | 383 kts | 127° |
| 2026-05-06 17:45 | 48.57264 | 10.98103 | 19807 ft | 381 kts | 127° |
| 2026-05-06 17:45 | 48.55773 | 11.01402 | 19229 ft | 379 kts | 127° |
| 2026-05-06 17:45 | 48.54293 | 11.04676 | 18666 ft | 377 kts | 127° |
| 2026-05-06 17:46 | 48.52819 | 11.07929 | 18092 ft | 375 kts | 127° |
| 2026-05-06 17:46 | 48.51353 | 11.11163 | 17483 ft | 373 kts | 127° |
| 2026-05-06 17:46 | 48.49889 | 11.14391 | 16879 ft | 370 kts | 127° |
| 2026-05-06 17:46 | 48.48438 | 11.17585 | 16302 ft | 368 kts | 127° |
| 2026-05-06 17:47 | 48.46998 | 11.20750 | 15750 ft | 365 kts | 127° |
| 2026-05-06 17:47 | 48.45567 | 11.23892 | 15197 ft | 363 kts | 127° |
| 2026-05-06 17:47 | 48.44144 | 11.27013 | 14641 ft | 361 kts | 127° |
| 2026-05-06 17:47 | 48.42750 | 11.30147 | 14120 ft | 360 kts | 122° |
| 2026-05-06 17:48 | 48.42106 | 11.32324 | 13790 ft | 362 kts | 110° |
| 2026-05-06 17:48 | 48.42005 | 11.32847 | 13713 ft | 362 kts | 107° |
| 2026-05-06 17:48 | 48.41772 | 11.36048 | 13204 ft | 365 kts | 89° |
| 2026-05-06 17:48 | 48.42035 | 11.39842 | 12650 ft | 364 kts | 83° |
| 2026-05-06 17:49 | 48.42429 | 11.43594 | 12113 ft | 361 kts | 83° |
| 2026-05-06 17:49 | 48.42810 | 11.47308 | 11633 ft | 357 kts | 83° |
| 2026-05-06 17:49 | 48.43148 | 11.50999 | 11128 ft | 355 kts | 84° |
| 2026-05-06 17:49 | 48.43448 | 11.54657 | 10832 ft | 346 kts | 85° |
| 2026-05-06 17:50 | 48.43721 | 11.58186 | 10697 ft | 332 kts | 85° |
| 2026-05-06 17:50 | 48.43972 | 11.61546 | 10574 ft | 319 kts | 86° |
| 2026-05-06 17:50 | 48.44212 | 11.64791 | 10442 ft | 307 kts | 86° |
| 2026-05-06 17:50 | 48.44443 | 11.67960 | 10133 ft | 302 kts | 86° |
| 2026-05-06 17:51 | 48.44670 | 11.71090 | 9744 ft | 300 kts | 86° |
| 2026-05-06 17:51 | 48.44895 | 11.74206 | 9346 ft | 298 kts | 86° |
| 2026-05-06 17:51 | 48.45118 | 11.77294 | 8956 ft | 296 kts | 86° |
| 2026-05-06 17:51 | 48.45340 | 11.80370 | 8559 ft | 294 kts | 86° |
| 2026-05-06 17:52 | 48.45560 | 11.83416 | 8166 ft | 292 kts | 86° |
| 2026-05-06 17:52 | 48.45775 | 11.86407 | 7797 ft | 290 kts | 86° |
| 2026-05-06 17:52 | 48.45990 | 11.89414 | 7427 ft | 287 kts | 86° |
| 2026-05-06 17:52 | 48.46203 | 11.92397 | 7069 ft | 285 kts | 86° |
| 2026-05-06 17:53 | 48.46412 | 11.95346 | 6733 ft | 282 kts | 86° |
| 2026-05-06 17:53 | 48.46618 | 11.98280 | 6370 ft | 281 kts | 86° |
| 2026-05-06 17:53 | 48.46823 | 12.01196 | 5982 ft | 279 kts | 86° |
| 2026-05-06 17:53 | 48.47027 | 12.04106 | 5390 ft | 279 kts | 85° |
| 2026-05-06 17:54 | 48.47226 | 12.07009 | 4822 ft | 278 kts | 85° |
| 2026-05-06 17:54 | 48.47360 | 12.08962 | 4436 ft | 278 kts | 84° |
| 2026-05-06 17:54 | 48.47388 | 12.11815 | 4072 ft | 266 kts | 103° |
| 2026-05-06 17:54 | 48.46647 | 12.14189 | 3989 ft | 247 kts | 134° |
| 2026-05-06 17:55 | 48.45292 | 12.15582 | 3983 ft | 223 kts | 167° |
| 2026-05-06 17:55 | 48.43828 | 12.16000 | 3988 ft | 213 kts | 174° |
| 2026-05-06 17:55 | 48.42359 | 12.16339 | 3989 ft | 213 kts | 174° |
| 2026-05-06 17:55 | 48.40911 | 12.16298 | 3993 ft | 205 kts | 202° |
| 2026-05-06 17:56 | 48.39789 | 12.15041 | 4025 ft | 204 kts | 236° |
| 2026-05-06 17:56 | 48.39199 | 12.13127 | 4003 ft | 202 kts | 254° |
| 2026-05-06 17:56 | 48.38918 | 12.11069 | 4011 ft | 199 kts | 261° |
| 2026-05-06 17:56 | 48.38744 | 12.08999 | 4014 ft | 201 kts | 263° |
| 2026-05-06 17:57 | 48.38586 | 12.06924 | 4017 ft | 201 kts | 263° |
| 2026-05-06 17:57 | 48.38431 | 12.04912 | 4012 ft | 184 kts | 263° |
| 2026-05-06 17:57 | 48.38293 | 12.03103 | 4015 ft | 167 kts | 262° |
| 2026-05-06 17:57 | 48.38159 | 12.01360 | 4012 ft | 170 kts | 263° |
| 2026-05-06 17:58 | 48.38023 | 11.99582 | 3838 ft | 169 kts | 263° |
| 2026-05-06 17:58 | 48.37892 | 11.97867 | 3610 ft | 160 kts | 263° |
| 2026-05-06 17:58 | 48.37770 | 11.96266 | 3413 ft | 145 kts | 263° |
| 2026-05-06 17:58 | 48.37651 | 11.94721 | 3218 ft | 152 kts | 263° |
| 2026-05-06 17:59 | 48.37532 | 11.93162 | 3017 ft | 150 kts | 263° |
| 2026-05-06 17:59 | 48.37413 | 11.91607 | 2810 ft | 149 kts | 262° |
| 2026-05-06 17:59 | 48.37298 | 11.90096 | 2608 ft | 145 kts | 263° |
| 2026-05-06 17:59 | 48.37181 | 11.88560 | 2387 ft | 149 kts | 262° |
| 2026-05-06 18:00 | 48.37049 | 11.87033 | 2148 ft | 143 kts | 261° |
| 2026-05-06 18:00 | 48.36925 | 11.85631 | 1937 ft | 130 kts | 263° |
| 2026-05-06 18:00 | 48.36829 | 11.84312 | 1793 ft | 126 kts | 263° |
| 2026-05-06 18:00 | 48.36734 | 11.82974 | 1626 ft | 127 kts | 263° |
| 2026-05-06 18:01 | 48.36646 | 11.81661 | 1489 ft | 126 kts | 264° |
| 2026-05-06 18:01 | 48.36556 | 11.80463 | 1466 ft | 99 kts | 264° |
| 2026-05-06 18:01 | 48.36509 | 11.79826 | 1458 ft | 32 kts | 263° |
| 2026-05-06 18:01 | 48.36492 | 11.79501 | 1463 ft | 34 kts | 264° |
| 2026-05-06 18:02 | 48.36460 | 11.79170 | 1466 ft | 31 kts | 262° |
| 2026-05-06 18:02 | 48.36387 | 11.78875 | 1466 ft | 30 kts | 232° |
| 2026-05-06 18:02 | 48.36268 | 11.78637 | 1461 ft | 26 kts | 234° |
| 2026-05-06 18:02 | 48.36235 | 11.78573 | 1465 ft | 2 kts | 230° |
| 2026-05-06 18:03 | 48.36212 | 11.78530 | 1463 ft | 9 kts | 233° |
| 2026-05-06 18:03 | 48.36170 | 11.78446 | 1460 ft | 10 kts | 233° |
| 2026-05-06 18:03 | 48.36132 | 11.78353 | 1459 ft | 11 kts | 252° |
| 2026-05-06 18:03 | 48.36118 | 11.78236 | 1466 ft | 12 kts | 263° |
| 2026-05-06 18:04 | 48.36108 | 11.78109 | 1466 ft | 13 kts | 264° |
| 2026-05-06 18:04 | 48.36098 | 11.77971 | 1463 ft | 14 kts | 263° |
| 2026-05-06 18:04 | 48.36086 | 11.77827 | 1461 ft | 14 kts | 263° |
| 2026-05-06 18:04 | 48.36065 | 11.77685 | 1462 ft | 13 kts | 225° |
| 2026-05-06 18:05 | 48.36041 | 11.77668 | 1463 ft | 2 kts | 193° |
| 2026-05-06 18:05 | 48.36020 | 11.77666 | 1466 ft | 4 kts | 180° |
| 2026-05-06 18:05 | 48.35980 | 11.77672 | 1463 ft | 7 kts | 173° |
| 2026-05-06 18:05 | 48.35919 | 11.77684 | 1458 ft | 10 kts | 172° |
| 2026-05-06 18:06 | 48.35839 | 11.77699 | 1466 ft | 13 kts | 173° |
| 2026-05-06 18:06 | 48.35816 | 11.77700 | 1459 ft | 4 kts | 178° |
| 2026-05-06 18:06 | 48.35781 | 11.77700 | 1463 ft | 7 kts | 186° |
| 2026-05-06 18:06 | 48.35730 | 11.77678 | 1466 ft | 9 kts | 186° |
| 2026-05-06 18:07 | 48.35700 | 11.77679 | 1462 ft | 2 kts | 174° |
| 2026-05-06 18:07 | 48.35677 | 11.77683 | 1465 ft | 5 kts | 174° |
| 2026-05-06 18:07 | 48.35631 | 11.77690 | 1462 ft | 8 kts | 173° |
| 2026-05-06 18:07 | 48.35565 | 11.77701 | 1466 ft | 11 kts | 175° |
| 2026-05-06 18:08 | 48.35479 | 11.77716 | 1463 ft | 14 kts | 173° |
| 2026-05-06 18:08 | 48.35440 | 11.77722 | 1462 ft | 1 kts | 174° |
| 2026-05-06 18:08 | 48.35434 | 11.77720 | 1463 ft | 1 kts | 200° |
| 2026-05-06 18:08 | 48.35426 | 11.77701 | 1466 ft | 3 kts | 243° |
| 2026-05-06 18:09 | 48.35422 | 11.77663 | 1466 ft | 4 kts | 263° |
| 2026-05-06 18:09 | 48.35421 | 11.77659 | 1466 ft | 1 kts | 262° |
| 2026-05-06 18:09 | 48.35421 | 11.77657 | 1466 ft | 0 kts | 262° |